createdAt,value
2018-09-21T00:01:47.459Z,90.50
2018-09-21T00:04:15.638Z,90.70
2018-09-21T00:06:44.176Z,90.80
2018-09-21T00:09:13.036Z,90.90
2018-09-21T00:11:41.250Z,90.80
2018-09-21T00:14:09.442Z,90.90
2018-09-21T00:16:37.672Z,91.00
2018-09-21T00:19:05.919Z,90.90
2018-09-21T00:21:34.128Z,90.90
2018-09-21T00:24:02.307Z,90.90
2018-09-21T00:26:30.506Z,90.90
2018-09-21T00:28:58.694Z,90.90
2018-09-21T00:31:26.891Z,90.80
2018-09-21T00:33:55.351Z,90.80
2018-09-21T00:36:23.527Z,91.00
2018-09-21T00:38:51.686Z,90.90
2018-09-21T00:41:19.851Z,90.80
2018-09-21T00:43:48.003Z,90.80
2018-09-21T00:46:16.176Z,90.70
2018-09-21T00:48:44.339Z,90.80
2018-09-21T00:51:12.528Z,91.00
2018-09-21T00:53:40.879Z,91.10
2018-09-21T00:56:09.076Z,91.00
2018-09-21T00:58:37.244Z,91.00
2018-09-21T01:01:05.415Z,91.00
2018-09-21T01:03:33.567Z,90.90
2018-09-21T01:06:01.731Z,90.90
2018-09-21T01:08:29.882Z,91.00
2018-09-21T01:10:58.042Z,90.80
2018-09-21T01:13:26.208Z,90.90
2018-09-21T01:15:54.416Z,91.00
2018-09-21T01:18:22.889Z,91.00
2018-09-21T01:20:51.063Z,91.10
2018-09-21T01:23:19.223Z,91.20
2018-09-21T01:25:47.391Z,90.80
2018-09-21T01:28:15.597Z,90.80
2018-09-21T01:30:43.768Z,91.10
2018-09-21T01:33:11.955Z,91.00
2018-09-21T01:35:40.164Z,90.90
2018-09-21T01:38:08.299Z,90.80
2018-09-21T01:40:36.447Z,90.70
2018-09-21T01:43:04.611Z,90.80
2018-09-21T01:45:32.771Z,90.90
2018-09-21T01:48:00.930Z,90.80
2018-09-21T01:50:29.094Z,90.80
2018-09-21T01:52:57.239Z,90.90
2018-09-21T01:55:25.403Z,90.80
2018-09-21T01:57:53.563Z,90.90
2018-09-21T02:00:21.732Z,90.80
2018-09-21T02:02:49.933Z,90.90
2018-09-21T02:05:18.100Z,90.90
2018-09-21T02:07:46.280Z,90.80
2018-09-21T02:10:14.435Z,90.90
2018-09-21T02:12:42.600Z,90.90
2018-09-21T02:15:10.751Z,90.80
2018-09-21T02:17:38.982Z,91.00
2018-09-21T02:20:07.059Z,91.00
2018-09-21T02:22:35.231Z,91.00
2018-09-21T02:25:03.392Z,91.10
2018-09-21T02:27:31.566Z,91.10
2018-09-21T02:29:59.726Z,91.00
2018-09-21T02:32:28.119Z,91.10
2018-09-21T02:34:56.267Z,91.00
2018-09-21T02:37:24.488Z,90.90
2018-09-21T02:39:52.676Z,90.80
2018-09-21T02:42:20.873Z,90.90
2018-09-21T02:44:49.036Z,91.00
2018-09-21T02:47:17.514Z,90.90
2018-09-21T02:49:45.679Z,91.00
2018-09-21T02:52:14.098Z,90.90
2018-09-21T02:54:42.248Z,90.70
2018-09-21T02:57:10.419Z,90.90
2018-09-21T02:59:38.580Z,90.80
2018-09-21T03:02:06.741Z,90.90
2018-09-21T03:04:39.143Z,90.80
2018-09-21T03:07:07.309Z,91.00
2018-09-21T03:09:35.505Z,90.90
2018-09-21T03:12:03.730Z,91.00
2018-09-21T03:14:31.908Z,90.80
2018-09-21T03:17:00.063Z,91.10
2018-09-21T03:19:28.227Z,91.00
2018-09-21T03:21:56.390Z,91.10
2018-09-21T03:24:24.547Z,91.00
2018-09-21T03:26:52.703Z,91.00
2018-09-21T03:29:20.867Z,91.10
2018-09-21T03:31:49.061Z,91.30
2018-09-21T03:34:17.223Z,91.10
2018-09-21T03:36:45.388Z,91.10
2018-09-21T03:39:13.550Z,91.00
2018-09-21T03:41:42.060Z,91.30
2018-09-21T03:44:10.434Z,91.30
2018-09-21T03:46:38.602Z,91.40
2018-09-21T03:49:06.759Z,91.30
2018-09-21T03:51:34.920Z,91.20
2018-09-21T03:54:03.087Z,91.20
2018-09-21T03:56:31.243Z,91.40
2018-09-21T03:58:59.407Z,91.30
2018-09-21T04:01:27.565Z,91.40
2018-09-21T04:03:55.731Z,91.20
2018-09-21T04:06:23.907Z,91.50
2018-09-21T04:08:52.071Z,91.40
2018-09-21T04:11:20.615Z,91.40
2018-09-21T04:13:49.275Z,91.40
2018-09-21T04:16:17.481Z,91.50
2018-09-21T04:18:45.663Z,91.50
2018-09-21T04:21:13.838Z,91.30
2018-09-21T04:23:42.000Z,91.40
2018-09-21T04:26:10.374Z,91.40
2018-09-21T04:28:38.547Z,91.50
2018-09-21T04:31:06.707Z,91.60
2018-09-21T04:33:34.872Z,91.50
2018-09-21T04:36:03.330Z,91.20
2018-09-21T04:38:31.467Z,91.70
2018-09-21T04:40:59.631Z,91.60
2018-09-21T04:43:27.797Z,91.70
2018-09-21T04:45:56.385Z,92.00
2018-09-21T04:48:24.451Z,91.90
2018-09-21T04:50:52.672Z,91.80
2018-09-21T04:53:20.867Z,92.10
2018-09-21T04:55:49.114Z,92.10
2018-09-21T04:58:17.263Z,92.10
2018-09-21T05:00:45.435Z,92.10
2018-09-21T05:03:13.903Z,92.10
2018-09-21T05:05:42.299Z,92.20
2018-09-21T05:08:10.735Z,92.10
2018-09-21T05:10:39.241Z,92.10
2018-09-21T05:13:07.390Z,92.20
2018-09-21T05:15:35.555Z,92.00
2018-09-21T05:18:03.706Z,92.10
2018-09-21T05:20:32.222Z,92.40
2018-09-21T05:23:00.417Z,92.10
2018-09-21T05:25:28.608Z,92.20
2018-09-21T05:27:56.771Z,92.10
2018-09-21T05:30:25.243Z,92.10
2018-09-21T05:32:53.396Z,92.00
2018-09-21T05:35:21.559Z,92.10
2018-09-21T05:37:49.754Z,92.00
2018-09-21T05:40:17.943Z,92.10
2018-09-21T05:42:46.123Z,92.30
2018-09-21T05:45:14.302Z,92.20
2018-09-21T05:47:42.482Z,92.20
2018-09-21T05:50:10.667Z,92.10
2018-09-21T05:52:38.846Z,92.20
2018-09-21T05:55:07.111Z,92.30
2018-09-21T05:57:35.409Z,92.40
2018-09-21T06:00:03.644Z,92.30
2018-09-21T06:02:31.929Z,92.10
2018-09-21T06:05:05.382Z,92.00
2018-09-21T06:07:34.051Z,91.60
2018-09-21T06:10:02.534Z,91.50
2018-09-21T06:12:30.710Z,91.20
2018-09-21T06:14:58.907Z,91.00
2018-09-21T06:17:27.097Z,91.00
2018-09-21T06:19:55.555Z,91.10
2018-09-21T06:22:24.011Z,91.20
2018-09-21T06:24:52.203Z,90.80
2018-09-21T06:27:20.386Z,90.80
2018-09-21T06:29:48.664Z,90.80
2018-09-21T06:32:16.893Z,90.40
2018-09-21T06:34:45.092Z,90.20
2018-09-21T06:37:13.266Z,89.20
2018-09-21T06:39:41.431Z,89.10
2018-09-21T06:42:09.591Z,87.60
2018-09-21T06:44:37.749Z,86.50
2018-09-21T06:47:05.910Z,86.70
2018-09-21T06:49:34.063Z,85.50
2018-09-21T06:52:02.238Z,84.90
2018-09-21T06:54:30.618Z,84.60
2018-09-21T06:56:58.796Z,84.00
2018-09-21T06:59:26.947Z,84.30
2018-09-21T07:01:55.151Z,83.90
2018-09-21T07:04:23.333Z,83.40
2018-09-21T07:06:51.517Z,82.90
2018-09-21T07:09:19.670Z,81.90
2018-09-21T07:11:47.838Z,82.10
2018-09-21T07:14:15.995Z,82.40
2018-09-21T07:16:44.167Z,81.50
2018-09-21T07:19:12.333Z,80.90
2018-09-21T07:21:40.499Z,80.00
2018-09-21T07:24:08.659Z,79.10
2018-09-21T07:26:36.831Z,78.50
2018-09-21T07:29:04.986Z,78.60
2018-09-21T07:31:33.619Z,78.90
2018-09-21T07:34:02.084Z,78.70
2018-09-21T07:36:30.523Z,77.20
2018-09-21T07:38:58.820Z,76.60
2018-09-21T07:41:27.061Z,75.80
2018-09-21T07:43:55.263Z,75.60
2018-09-21T07:46:23.480Z,74.30
2018-09-21T07:48:51.729Z,73.70
2018-09-21T07:51:19.859Z,73.90
2018-09-21T07:53:48.367Z,73.00
2018-09-21T07:56:16.558Z,73.60
2018-09-21T07:58:44.743Z,73.10
2018-09-21T08:01:12.952Z,72.70
2018-09-21T08:03:41.140Z,72.10
2018-09-21T08:06:09.328Z,72.90
2018-09-21T08:08:37.520Z,73.00
2018-09-21T08:11:05.851Z,71.50
2018-09-21T08:13:34.055Z,72.00
2018-09-21T08:16:02.260Z,71.60
2018-09-21T08:18:30.536Z,70.90
2018-09-21T08:20:58.745Z,70.90
2018-09-21T08:23:26.948Z,70.50
2018-09-21T08:25:55.359Z,71.70
2018-09-21T08:28:23.559Z,70.40
2018-09-21T08:30:51.747Z,70.50
2018-09-21T08:33:20.017Z,69.90
2018-09-21T08:35:48.144Z,69.40
2018-09-21T08:38:16.343Z,69.70
2018-09-21T08:40:44.530Z,69.10
2018-09-21T08:43:12.744Z,69.40
2018-09-21T08:45:41.791Z,69.10
2018-09-21T08:48:09.915Z,69.80
2018-09-21T08:50:38.139Z,68.30
2018-09-21T08:53:06.540Z,67.60
2018-09-21T08:55:34.876Z,67.20
2018-09-21T08:58:03.303Z,68.00
2018-09-21T09:00:31.500Z,69.60
2018-09-21T09:02:59.763Z,67.70
2018-09-21T09:05:27.946Z,66.00
2018-09-21T09:07:56.146Z,66.80
2018-09-21T09:10:25.106Z,65.30
2018-09-21T09:12:53.299Z,64.40
2018-09-21T09:15:21.527Z,65.60
2018-09-21T09:17:49.715Z,64.20
2018-09-21T09:20:18.117Z,66.50
2018-09-21T09:22:46.559Z,64.70
2018-09-21T09:25:14.735Z,64.00
2018-09-21T09:27:42.931Z,64.60
2018-09-21T09:30:11.146Z,65.80
2018-09-21T09:32:39.305Z,63.60
2018-09-21T09:35:07.491Z,63.80
2018-09-21T09:37:35.718Z,63.70
2018-09-21T09:40:04.202Z,62.90
2018-09-21T09:42:32.384Z,62.70
2018-09-21T09:45:00.587Z,64.00
2018-09-21T09:47:29.041Z,62.60
2018-09-21T09:49:57.252Z,64.40
2018-09-21T09:52:25.443Z,62.90
2018-09-21T09:54:53.754Z,62.60
2018-09-21T09:57:21.883Z,61.60
2018-09-21T09:59:50.096Z,61.10
2018-09-21T10:02:18.279Z,60.50
2018-09-21T10:04:46.483Z,60.70
2018-09-21T10:07:14.722Z,58.50
2018-09-21T10:09:42.940Z,61.00
2018-09-21T10:12:11.139Z,60.00
2018-09-21T10:14:39.332Z,57.00
2018-09-21T10:17:07.868Z,57.00
2018-09-21T10:19:36.069Z,57.50
2018-09-21T10:22:04.254Z,56.40
2018-09-21T10:24:32.760Z,55.60
2018-09-21T10:27:00.983Z,55.90
2018-09-21T10:29:29.257Z,55.70
2018-09-21T10:31:57.458Z,55.10
2018-09-21T10:34:25.651Z,55.60
2018-09-21T10:36:53.876Z,54.70
2018-09-21T10:39:22.149Z,53.50
2018-09-21T10:41:50.256Z,54.80
2018-09-21T10:44:18.462Z,55.60
2018-09-21T10:46:46.663Z,51.00
2018-09-21T10:49:14.882Z,51.30
2018-09-21T10:51:43.099Z,51.40
2018-09-21T10:54:11.345Z,51.90
2018-09-21T10:56:39.568Z,51.70
2018-09-21T10:59:07.780Z,54.20
2018-09-21T11:01:35.966Z,53.50
2018-09-21T11:04:04.511Z,52.10
2018-09-21T11:06:32.703Z,52.60
2018-09-21T11:09:00.907Z,51.90
2018-09-21T11:11:29.103Z,52.90
2018-09-21T11:13:57.294Z,53.50
2018-09-21T11:16:25.797Z,51.70
2018-09-21T11:18:53.974Z,51.60
2018-09-21T11:21:22.183Z,54.90
2018-09-21T11:23:50.372Z,50.10
2018-09-21T11:26:18.579Z,52.00
2018-09-21T11:28:46.776Z,49.80
2018-09-21T11:31:14.987Z,51.10
2018-09-21T11:33:43.214Z,49.50
2018-09-21T11:36:11.487Z,48.90
2018-09-21T11:38:39.712Z,50.40
2018-09-21T11:41:07.936Z,50.80
2018-09-21T11:43:36.087Z,48.60
2018-09-21T11:46:04.584Z,49.40
2018-09-21T11:48:32.755Z,48.50
2018-09-21T11:51:00.979Z,48.20
2018-09-21T11:53:29.171Z,49.90
2018-09-21T11:55:57.363Z,47.40
2018-09-21T11:58:25.580Z,45.20
2018-09-21T12:00:53.787Z,46.40
2018-09-21T12:03:21.982Z,45.40
2018-09-21T12:05:50.195Z,44.40
2018-09-21T12:08:18.387Z,43.60
2018-09-21T12:10:46.653Z,44.00
2018-09-21T12:13:14.862Z,44.40
2018-09-21T12:15:43.090Z,43.30
2018-09-21T12:18:11.296Z,41.80
2018-09-21T12:20:39.491Z,41.40
2018-09-21T12:23:07.682Z,41.80
2018-09-21T12:25:35.888Z,44.60
2018-09-21T12:28:04.075Z,40.50
2018-09-21T12:30:32.280Z,40.90
2018-09-21T12:33:00.524Z,43.20
2018-09-21T12:35:28.723Z,41.60
2018-09-21T12:37:56.903Z,41.10
2018-09-21T12:40:25.075Z,41.80
2018-09-21T12:42:53.263Z,39.70
2018-09-21T12:45:21.457Z,41.10
2018-09-21T12:47:49.638Z,39.30
2018-09-21T12:50:17.841Z,41.10
2018-09-21T12:52:46.003Z,39.70
2018-09-21T12:55:14.644Z,39.30
2018-09-21T12:57:42.866Z,40.60
2018-09-21T13:00:11.180Z,40.40
2018-09-21T13:02:39.826Z,40.00
2018-09-21T13:05:07.980Z,39.60
2018-09-21T13:07:36.147Z,40.20
2018-09-21T13:10:04.587Z,40.30
2018-09-21T13:12:32.966Z,40.40
2018-09-21T13:15:01.955Z,37.90
2018-09-21T13:17:30.147Z,39.20
2018-09-21T13:19:58.784Z,37.40
2018-09-21T13:22:27.207Z,36.90
2018-09-21T13:24:55.387Z,36.90
2018-09-21T13:27:23.616Z,40.70
2018-09-21T13:29:51.797Z,38.30
2018-09-21T13:32:20.172Z,36.00
2018-09-21T13:34:48.315Z,37.20
2018-09-21T13:37:16.839Z,35.20
2018-09-21T13:39:45.032Z,38.00
2018-09-21T13:42:13.227Z,37.30
2018-09-21T13:44:41.415Z,38.10
2018-09-21T13:47:10.462Z,36.90
2018-09-21T13:49:38.683Z,37.40
2018-09-21T13:52:06.938Z,37.80
2018-09-21T13:54:35.139Z,39.70
2018-09-21T13:57:03.355Z,37.50
2018-09-21T13:59:31.555Z,37.60
2018-09-21T14:01:59.799Z,39.30
2018-09-21T14:04:28.020Z,39.60
2018-09-21T14:06:56.244Z,39.80
2018-09-21T14:09:25.283Z,42.10
2018-09-21T14:11:53.526Z,42.60
2018-09-21T14:14:22.095Z,42.70
2018-09-21T14:16:50.483Z,42.00
2018-09-21T14:19:18.680Z,43.00
2018-09-21T14:21:46.879Z,42.60
2018-09-21T14:24:15.291Z,44.40
2018-09-21T14:26:43.802Z,44.10
2018-09-21T14:29:12.067Z,43.20
2018-09-21T14:31:40.223Z,44.70
2018-09-21T14:34:08.866Z,44.30
2018-09-21T14:36:37.197Z,45.30
2018-09-21T14:39:07.819Z,45.90
2018-09-21T14:41:36.019Z,46.30
2018-09-21T14:44:04.239Z,45.90
2018-09-21T14:46:32.426Z,45.30
2018-09-21T14:49:00.717Z,45.80
2018-09-21T14:51:28.907Z,45.40
2018-09-21T14:53:57.119Z,44.40
2018-09-21T14:56:25.338Z,45.80
2018-09-21T14:58:53.739Z,46.20
2018-09-21T15:01:21.927Z,46.30
2018-09-21T15:03:50.119Z,46.00
2018-09-21T15:06:18.348Z,46.10
2018-09-21T15:08:46.568Z,47.10
2018-09-21T15:11:14.879Z,47.50
2018-09-21T15:13:43.374Z,46.90
2018-09-21T15:16:11.579Z,47.40
2018-09-21T15:18:39.795Z,47.20
2018-09-21T15:21:08.017Z,48.90
2018-09-21T15:23:36.223Z,49.60
2018-09-21T15:26:04.719Z,48.60
2018-09-21T15:28:32.914Z,48.80
2018-09-21T15:31:01.104Z,48.50
2018-09-21T15:33:29.360Z,48.80
2018-09-21T15:35:57.522Z,49.10
2018-09-21T15:38:25.754Z,49.10
2018-09-21T15:40:53.883Z,49.60
2018-09-21T15:43:22.375Z,50.60
2018-09-21T15:45:50.471Z,49.60
2018-09-21T15:48:18.669Z,51.00
2018-09-21T15:50:46.872Z,50.20
2018-09-21T15:53:15.052Z,50.40
2018-09-21T15:55:43.219Z,51.10
2018-09-21T15:58:11.799Z,52.50
2018-09-21T16:00:40.211Z,51.60
2018-09-21T16:03:08.450Z,51.60
2018-09-21T16:05:36.606Z,52.20
2018-09-21T16:08:05.084Z,52.10
2018-09-21T16:10:33.266Z,52.10
2018-09-21T16:13:01.437Z,51.90
2018-09-21T16:15:29.595Z,53.40
2018-09-21T16:17:57.771Z,54.60
2018-09-21T16:20:25.927Z,53.40
2018-09-21T16:22:54.095Z,53.20
2018-09-21T16:25:22.265Z,53.30
2018-09-21T16:27:50.465Z,54.00
2018-09-21T16:30:18.677Z,53.90
2018-09-21T16:32:47.092Z,53.90
2018-09-21T16:35:17.305Z,54.20
2018-09-21T16:37:46.659Z,54.10
2018-09-21T16:40:16.967Z,55.70
2018-09-21T16:42:47.812Z,55.00
2018-09-21T16:45:16.311Z,54.70
2018-09-21T16:47:44.481Z,55.00
2018-09-21T16:50:12.657Z,55.20
2018-09-21T16:52:40.815Z,55.70
2018-09-21T16:55:08.975Z,56.50
2018-09-21T16:57:37.167Z,56.50
2018-09-21T17:00:06.431Z,57.40
2018-09-21T17:02:34.631Z,57.20
2018-09-21T17:05:02.827Z,58.20
2018-09-21T17:07:31.227Z,57.80
2018-09-21T17:09:59.711Z,57.50
2018-09-21T17:12:27.960Z,58.30
2018-09-21T17:14:56.144Z,58.20
2018-09-21T17:17:24.333Z,58.10
2018-09-21T17:19:52.544Z,58.30
2018-09-21T17:22:20.719Z,59.20
2018-09-21T17:24:48.887Z,59.70
2018-09-21T17:27:17.070Z,59.70
2018-09-21T17:29:45.234Z,59.60
2018-09-21T17:32:13.956Z,59.70
2018-09-21T17:34:42.135Z,59.90
2018-09-21T17:37:10.416Z,59.80
2018-09-21T17:39:38.528Z,60.20
2018-09-21T17:42:06.688Z,60.00
2018-09-21T17:44:35.707Z,59.20
2018-09-21T17:47:03.896Z,58.80
2018-09-21T17:49:32.062Z,59.00
2018-09-21T17:52:00.516Z,62.00
2018-09-21T17:54:28.726Z,62.20
2018-09-21T17:56:56.891Z,61.80
2018-09-21T17:59:25.067Z,62.50
2018-09-21T18:01:53.234Z,62.60
2018-09-21T18:04:21.635Z,62.20
2018-09-21T18:06:49.945Z,62.90
2018-09-21T18:09:18.103Z,63.10
2018-09-21T18:11:46.294Z,65.30
2018-09-21T18:14:14.462Z,65.10
2018-09-21T18:16:42.631Z,65.50
2018-09-21T18:19:10.827Z,65.90
2018-09-21T18:21:39.027Z,66.40
2018-09-21T18:24:07.188Z,66.60
2018-09-21T18:26:35.390Z,65.80
2018-09-21T18:29:03.755Z,66.10
2018-09-21T18:31:31.951Z,64.90
2018-09-21T18:34:00.087Z,65.80
2018-09-21T18:36:28.294Z,68.30
2018-09-21T18:38:56.495Z,68.60
2018-09-21T18:41:24.696Z,67.80
2018-09-21T18:43:53.551Z,68.00
2018-09-21T18:46:21.763Z,68.00
2018-09-21T18:48:49.956Z,68.00
2018-09-21T18:51:18.235Z,67.60
2018-09-21T18:53:46.585Z,68.20
2018-09-21T18:56:15.044Z,68.00
2018-09-21T18:58:43.254Z,68.60
2018-09-21T19:01:11.443Z,69.90
2018-09-21T19:03:39.640Z,71.00
2018-09-21T19:06:07.880Z,72.40
2018-09-21T19:08:36.117Z,73.60
2018-09-21T19:11:04.331Z,74.90
2018-09-21T19:13:32.527Z,72.90
2018-09-21T19:16:00.723Z,72.90
2018-09-21T19:18:28.915Z,72.20
2018-09-21T19:20:57.103Z,70.40
2018-09-21T19:23:25.287Z,69.90
2018-09-21T19:25:53.789Z,69.30
2018-09-21T19:28:22.739Z,69.40
2018-09-21T19:30:50.934Z,71.30
2018-09-21T19:33:19.123Z,72.10
2018-09-21T19:35:47.339Z,73.40
2018-09-21T19:38:15.573Z,74.80
2018-09-21T19:40:44.093Z,75.80
2018-09-21T19:43:12.305Z,76.60
2018-09-21T19:45:40.558Z,76.00
2018-09-21T19:48:08.749Z,77.50
2018-09-21T19:50:36.915Z,76.60
2018-09-21T19:53:05.173Z,75.70
2018-09-21T19:55:33.463Z,76.60
2018-09-21T19:58:01.654Z,74.00
2018-09-21T20:00:30.245Z,74.30
2018-09-21T20:02:58.424Z,73.10
2018-09-21T20:05:26.608Z,74.00
2018-09-21T20:07:54.795Z,75.50
2018-09-21T20:10:23.006Z,75.30
2018-09-21T20:12:51.211Z,74.30
2018-09-21T20:15:19.470Z,75.70
2018-09-21T20:17:48.256Z,75.90
2018-09-21T20:20:16.465Z,76.40
2018-09-21T20:22:44.674Z,77.60
2018-09-21T20:25:12.898Z,77.00
2018-09-21T20:27:41.079Z,77.10
2018-09-21T20:31:12.374Z,77.20
2018-09-21T20:33:40.763Z,77.30
2018-09-21T20:36:08.983Z,78.60
2018-09-21T20:38:37.438Z,78.70
2018-09-21T20:41:05.624Z,79.40
2018-09-21T20:43:33.792Z,79.20
2018-09-21T20:46:01.957Z,80.30
2018-09-21T20:48:30.235Z,79.50
2018-09-21T20:50:58.713Z,80.20
2018-09-21T20:53:27.200Z,79.90
2018-09-21T20:55:55.370Z,80.00
2018-09-21T20:58:23.538Z,80.60
2018-09-21T21:00:51.702Z,82.80
2018-09-21T21:03:19.867Z,82.00
2018-09-21T21:05:48.097Z,81.80
2018-09-21T21:08:16.319Z,82.90
2018-09-21T21:10:44.524Z,82.90
2018-09-21T21:13:12.783Z,82.70
2018-09-21T21:15:40.886Z,83.60
2018-09-21T21:18:09.571Z,83.50
2018-09-21T21:20:37.723Z,83.80
2018-09-21T21:23:06.096Z,83.60
2018-09-21T21:25:34.564Z,84.50
2018-09-21T21:28:02.730Z,84.80
2018-09-21T21:30:31.260Z,84.50
2018-09-21T21:32:59.644Z,85.50
2018-09-21T21:35:28.353Z,85.00
2018-09-21T21:37:57.432Z,85.30
2018-09-21T21:40:25.602Z,85.80
2018-09-21T21:42:53.846Z,84.50
2018-09-21T21:45:22.023Z,84.50
2018-09-21T21:47:50.240Z,84.30
2018-09-21T21:50:18.472Z,84.40
2018-09-21T21:52:47.074Z,84.50
2018-09-21T21:55:15.271Z,85.20
2018-09-21T21:57:43.467Z,84.90
2018-09-21T22:00:12.027Z,84.70
2018-09-21T22:02:40.224Z,84.30
2018-09-21T22:05:08.407Z,83.10
2018-09-21T22:07:37.882Z,84.90
2018-09-21T22:10:07.487Z,84.80
2018-09-21T22:12:41.276Z,85.90
2018-09-21T22:15:16.830Z,85.40
2018-09-21T22:17:45.047Z,85.10
2018-09-21T22:20:13.259Z,85.30
2018-09-21T22:22:41.544Z,84.40
2018-09-21T22:25:10.347Z,83.80
2018-09-21T22:27:38.621Z,85.20
2018-09-21T22:30:07.198Z,84.30
2018-09-21T22:32:35.399Z,83.20
2018-09-21T22:35:03.591Z,84.80
2018-09-21T22:37:31.795Z,84.70
2018-09-21T22:40:00.235Z,84.30
2018-09-21T22:42:28.439Z,83.70
2018-09-21T22:44:56.662Z,84.60
2018-09-21T22:47:24.831Z,84.90
2018-09-21T22:49:53.015Z,85.00
2018-09-21T22:52:21.203Z,84.40
2018-09-21T22:54:49.445Z,85.90
2018-09-21T22:57:17.664Z,85.10
2018-09-21T22:59:45.899Z,85.10
2018-09-21T23:02:14.092Z,85.30
2018-09-21T23:04:42.280Z,86.40
2018-09-21T23:07:10.467Z,85.10
2018-09-21T23:09:38.669Z,84.80
2018-09-21T23:12:07.218Z,86.60
2018-09-21T23:14:35.414Z,85.80
2018-09-21T23:17:03.607Z,85.00
2018-09-21T23:19:31.799Z,84.40
2018-09-21T23:21:59.995Z,86.30
2018-09-21T23:24:28.182Z,86.70
2018-09-21T23:26:56.383Z,84.90
2018-09-21T23:29:24.620Z,84.40
2018-09-21T23:31:52.876Z,84.30
2018-09-21T23:34:21.023Z,83.40
2018-09-21T23:36:49.214Z,83.20
2018-09-21T23:39:17.407Z,84.90
2018-09-21T23:41:45.595Z,83.20
2018-09-21T23:44:13.791Z,84.50
2018-09-21T23:46:41.978Z,85.20
2018-09-21T23:49:10.171Z,84.60
2018-09-21T23:51:38.355Z,86.30
2018-09-21T23:54:06.553Z,83.50
2018-09-21T23:56:34.742Z,83.90
2018-09-21T23:59:03.300Z,85.00
